DLH24M EDDH-EDDN
Flight info
| Callsign | DLH24M |
|---|---|
| Flight time | 0h 54m |
| Altitude | 33000 |
| Route | AMLUH2G/33 AMLUH M852 POVEL DCT ZUCKA DCT SOMIX DCT MIPSI DCT VAGAB DCT SULUS DCT DODAS DODAS1V |
| Aircraft | A319/M-SDE3FGHIRWY/LB1 |
Departure
| Time | 2026-05-04 16:26 |
|---|---|
| Airport | Hamburg Helmut Schmidt Airport (EDDH) |
Arrival
| Time | 2026-05-04 17:20 |
|---|---|
| Airport | Nuremberg Airport (EDDN) |
| Time | Latitude | Longitude | Altitude | Speed | Heading |
|---|---|---|---|---|---|
| 2026-05-04 15:53 | 53.63217 | 9.99965 | 49 ft | 0 kts | 321° |
| 2026-05-04 16:17 | 53.63196 | 9.99995 | 47 ft | 2 kts | 308° |
| 2026-05-04 16:18 | 53.63188 | 10.00055 | 44 ft | 2 kts | 244° |
| 2026-05-04 16:18 | 53.63194 | 10.00073 | 45 ft | 2 kts | 232° |
| 2026-05-04 16:19 | 53.63182 | 10.00043 | 44 ft | 0 kts | 234° |
| 2026-05-04 16:22 | 53.63128 | 9.99934 | 48 ft | 7 kts | 229° |
| 2026-05-04 16:23 | 53.62969 | 9.99981 | 48 ft | 10 kts | 154° |
| 2026-05-04 16:24 | 53.62829 | 9.99779 | 43 ft | 8 kts | 326° |
| 2026-05-04 16:25 | 53.62866 | 9.99745 | 45 ft | 25 kts | 332° |
| 2026-05-04 16:26 | 53.65970 | 9.97099 | 1435 ft | 160 kts | 329° |
| 2026-05-04 16:26 | 53.69676 | 9.94637 | 2979 ft | 222 kts | 356° |
| 2026-05-04 16:27 | 53.72793 | 9.95272 | 4586 ft | 239 kts | 30° |
| 2026-05-04 16:28 | 53.74140 | 10.03059 | 7026 ft | 245 kts | 107° |
| 2026-05-04 16:28 | 53.71543 | 10.11423 | 8865 ft | 290 kts | 124° |
| 2026-05-04 16:29 | 53.65744 | 10.21705 | 11238 ft | 333 kts | 163° |
| 2026-05-04 16:30 | 53.58886 | 10.24901 | 13608 ft | 346 kts | 168° |
| 2026-05-04 16:31 | 53.54195 | 10.27065 | 15026 ft | 354 kts | 168° |
| 2026-05-04 16:31 | 53.46956 | 10.30399 | 17157 ft | 364 kts | 169° |
| 2026-05-04 16:32 | 53.39504 | 10.33784 | 19121 ft | 375 kts | 169° |
| 2026-05-04 16:33 | 53.34407 | 10.36082 | 20346 ft | 381 kts | 169° |
| 2026-05-04 16:33 | 53.29192 | 10.38413 | 21543 ft | 388 kts | 169° |
| 2026-05-04 16:34 | 53.23923 | 10.40766 | 22670 ft | 395 kts | 169° |
| 2026-05-04 16:34 | 53.21248 | 10.41963 | 23205 ft | 399 kts | 169° |
| 2026-05-04 16:35 | 53.13095 | 10.45595 | 24630 ft | 408 kts | 169° |
| 2026-05-04 16:35 | 53.04830 | 10.49267 | 25975 ft | 414 kts | 170° |
| 2026-05-04 16:36 | 53.02034 | 10.50502 | 26415 ft | 416 kts | 170° |
| 2026-05-04 16:36 | 52.97355 | 10.52574 | 27147 ft | 420 kts | 170° |
| 2026-05-04 16:37 | 52.91663 | 10.55087 | 28015 ft | 424 kts | 170° |
| 2026-05-04 16:37 | 52.88818 | 10.56334 | 28435 ft | 426 kts | 170° |
| 2026-05-04 16:37 | 52.83051 | 10.58868 | 29249 ft | 431 kts | 170° |
| 2026-05-04 16:38 | 52.77227 | 10.61468 | 30004 ft | 435 kts | 170° |
| 2026-05-04 16:39 | 52.68396 | 10.65414 | 30934 ft | 441 kts | 170° |
| 2026-05-04 16:39 | 52.62489 | 10.68020 | 31509 ft | 441 kts | 170° |
| 2026-05-04 16:40 | 52.56565 | 10.70624 | 32138 ft | 440 kts | 170° |
| 2026-05-04 16:40 | 52.50642 | 10.73246 | 32649 ft | 440 kts | 170° |
| 2026-05-04 16:41 | 52.44747 | 10.75851 | 32954 ft | 435 kts | 170° |
| 2026-05-04 16:41 | 52.36033 | 10.79491 | 32953 ft | 426 kts | 176° |
| 2026-05-04 16:43 | 52.21379 | 10.81603 | 32959 ft | 424 kts | 179° |
| 2026-05-04 16:43 | 52.12550 | 10.82829 | 32955 ft | 424 kts | 179° |
| 2026-05-04 16:45 | 51.94921 | 10.85514 | 32963 ft | 424 kts | 179° |
| 2026-05-04 16:46 | 51.80230 | 10.87722 | 32959 ft | 424 kts | 179° |
| 2026-05-04 16:47 | 51.68467 | 10.89489 | 32952 ft | 424 kts | 178° |
| 2026-05-04 16:48 | 51.56773 | 10.92842 | 32961 ft | 427 kts | 173° |
| 2026-05-04 16:49 | 51.45109 | 10.96290 | 32965 ft | 427 kts | 173° |
| 2026-05-04 16:50 | 51.33408 | 10.99740 | 32955 ft | 427 kts | 173° |
| 2026-05-04 16:51 | 51.24649 | 11.02057 | 32949 ft | 424 kts | 181° |
| 2026-05-04 16:51 | 51.18715 | 11.02132 | 32696 ft | 425 kts | 183° |
| 2026-05-04 16:52 | 51.12802 | 11.02179 | 31608 ft | 425 kts | 182° |
| 2026-05-04 16:52 | 51.09837 | 11.02211 | 31074 ft | 426 kts | 182° |
| 2026-05-04 16:53 | 51.03888 | 11.02264 | 30041 ft | 428 kts | 182° |
| 2026-05-04 16:53 | 50.95021 | 11.02353 | 28283 ft | 418 kts | 182° |
| 2026-05-04 16:54 | 50.92141 | 11.02255 | 27723 ft | 413 kts | 187° |
| 2026-05-04 16:55 | 50.81378 | 10.97198 | 25580 ft | 396 kts | 201° |
| 2026-05-04 16:55 | 50.76216 | 10.94347 | 24569 ft | 390 kts | 200° |
| 2026-05-04 16:56 | 50.71132 | 10.91546 | 23597 ft | 384 kts | 200° |
| 2026-05-04 16:56 | 50.63636 | 10.87416 | 21904 ft | 376 kts | 200° |
| 2026-05-04 16:57 | 50.61170 | 10.86054 | 21363 ft | 374 kts | 200° |
| 2026-05-04 16:57 | 50.56281 | 10.83359 | 20294 ft | 371 kts | 200° |
| 2026-05-04 16:58 | 50.48766 | 10.80849 | 18766 ft | 367 kts | 189° |
| 2026-05-04 16:58 | 50.46208 | 10.80351 | 18289 ft | 364 kts | 189° |
| 2026-05-04 16:59 | 50.41217 | 10.79377 | 17225 ft | 358 kts | 189° |
| 2026-05-04 17:00 | 50.31478 | 10.77493 | 15183 ft | 346 kts | 188° |
| 2026-05-04 17:00 | 50.24456 | 10.76138 | 13983 ft | 332 kts | 188° |
| 2026-05-04 17:01 | 50.19880 | 10.75252 | 13172 ft | 326 kts | 188° |
| 2026-05-04 17:01 | 50.15431 | 10.74394 | 12640 ft | 315 kts | 188° |
| 2026-05-04 17:02 | 50.11135 | 10.73571 | 12123 ft | 303 kts | 187° |
| 2026-05-04 17:02 | 50.07043 | 10.72806 | 11607 ft | 288 kts | 186° |
| 2026-05-04 17:03 | 50.05064 | 10.72554 | 11363 ft | 282 kts | 184° |
| 2026-05-04 17:03 | 50.03124 | 10.72380 | 11108 ft | 277 kts | 184° |
| 2026-05-04 17:03 | 49.99932 | 10.72132 | 10697 ft | 273 kts | 184° |
| 2026-05-04 17:04 | 49.96149 | 10.71828 | 10210 ft | 272 kts | 184° |
| 2026-05-04 17:04 | 49.92373 | 10.71493 | 9726 ft | 271 kts | 184° |
| 2026-05-04 17:05 | 49.88612 | 10.71146 | 9196 ft | 270 kts | 184° |
| 2026-05-04 17:05 | 49.84857 | 10.70805 | 8956 ft | 270 kts | 184° |
| 2026-05-04 17:06 | 49.81092 | 10.70531 | 8963 ft | 272 kts | 180° |
| 2026-05-04 17:06 | 49.79208 | 10.70753 | 8965 ft | 272 kts | 175° |
| 2026-05-04 17:07 | 49.75441 | 10.71398 | 8955 ft | 273 kts | 175° |
| 2026-05-04 17:07 | 49.74188 | 10.71606 | 8965 ft | 273 kts | 175° |
| 2026-05-04 17:07 | 49.71653 | 10.72023 | 8963 ft | 273 kts | 175° |
| 2026-05-04 17:07 | 49.69783 | 10.72387 | 8965 ft | 275 kts | 171° |
| 2026-05-04 17:08 | 49.67940 | 10.73239 | 8758 ft | 277 kts | 159° |
| 2026-05-04 17:08 | 49.64773 | 10.76606 | 8253 ft | 280 kts | 136° |
| 2026-05-04 17:08 | 49.63576 | 10.78984 | 7998 ft | 282 kts | 124° |
| 2026-05-04 17:09 | 49.62707 | 10.81706 | 7744 ft | 284 kts | 112° |
| 2026-05-04 17:09 | 49.62202 | 10.84656 | 7497 ft | 285 kts | 103° |
| 2026-05-04 17:09 | 49.61875 | 10.87670 | 7251 ft | 285 kts | 101° |
| 2026-05-04 17:10 | 49.61310 | 10.93660 | 6761 ft | 282 kts | 100° |
| 2026-05-04 17:10 | 49.60475 | 11.02591 | 6024 ft | 278 kts | 101° |
| 2026-05-04 17:11 | 49.60191 | 11.05554 | 5772 ft | 278 kts | 101° |
| 2026-05-04 17:11 | 49.59905 | 11.08490 | 5522 ft | 277 kts | 101° |
| 2026-05-04 17:11 | 49.59328 | 11.14342 | 5034 ft | 278 kts | 100° |
| 2026-05-04 17:12 | 49.59033 | 11.17326 | 4788 ft | 278 kts | 100° |
| 2026-05-04 17:12 | 49.58444 | 11.23207 | 4352 ft | 278 kts | 99° |
| 2026-05-04 17:13 | 49.57578 | 11.31808 | 4006 ft | 252 kts | 99° |
| 2026-05-04 17:14 | 49.56797 | 11.39571 | 4019 ft | 237 kts | 99° |
| 2026-05-04 17:14 | 49.56365 | 11.41951 | 4007 ft | 234 kts | 121° |
| 2026-05-04 17:14 | 49.53697 | 11.44133 | 4019 ft | 225 kts | 186° |
| 2026-05-04 17:15 | 49.52159 | 11.43740 | 4011 ft | 218 kts | 194° |
| 2026-05-04 17:15 | 49.49985 | 11.40931 | 4020 ft | 209 kts | 240° |
| 2026-05-04 17:16 | 49.48527 | 11.37077 | 4014 ft | 204 kts | 241° |
| 2026-05-04 17:16 | 49.47527 | 11.31262 | 3781 ft | 189 kts | 279° |
| 2026-05-04 17:17 | 49.47731 | 11.29258 | 3540 ft | 190 kts | 279° |
| 2026-05-04 17:17 | 49.48328 | 11.23314 | 2844 ft | 179 kts | 281° |
| 2026-05-04 17:18 | 49.48514 | 11.21460 | 2579 ft | 170 kts | 280° |
| 2026-05-04 17:18 | 49.48829 | 11.18292 | 2189 ft | 134 kts | 281° |
| 2026-05-04 17:19 | 49.49106 | 11.15519 | 1832 ft | 128 kts | 281° |
| 2026-05-04 17:19 | 49.49384 | 11.12727 | 1503 ft | 138 kts | 280° |
| 2026-05-04 17:20 | 49.49677 | 11.09703 | 1099 ft | 142 kts | 281° |
| 2026-05-04 17:20 | 49.49905 | 11.07421 | 1027 ft | 65 kts | 279° |
| 2026-05-04 17:20 | 49.49953 | 11.06924 | 1020 ft | 38 kts | 278° |
| 2026-05-04 17:21 | 49.49936 | 11.06475 | 1021 ft | 11 kts | 189° |
| 2026-05-04 17:21 | 49.49811 | 11.06550 | 1021 ft | 8 kts | 138° |
| 2026-05-04 17:22 | 49.49792 | 11.06637 | 1021 ft | 9 kts | 100° |
| 2026-05-04 17:22 | 49.49784 | 11.06738 | 1021 ft | 10 kts | 96° |
| 2026-05-04 17:23 | 49.49759 | 11.07007 | 1023 ft | 7 kts | 95° |
| 2026-05-04 17:23 | 49.49752 | 11.07078 | 1023 ft | 6 kts | 101° |
| 2026-05-04 17:23 | 49.49734 | 11.07229 | 1025 ft | 10 kts | 96° |
| 2026-05-04 17:24 | 49.49724 | 11.07346 | 1028 ft | 13 kts | 98° |
| 2026-05-04 17:24 | 49.49655 | 11.07766 | 1027 ft | 10 kts | 162° |
| 2026-05-04 17:25 | 49.49595 | 11.07729 | 1028 ft | 10 kts | 243° |
| 2026-05-04 17:25 | 49.49594 | 11.07530 | 1028 ft | 8 kts | 216° |
| 2026-05-04 17:26 | 49.49542 | 11.07517 | 1029 ft | 0 kts | 186° |